sensor_id;sensor_type;location;lat;lon;timestamp;P1;durP1;ratioP1;P2;durP2;ratioP2
19205;SDS011;59358;52.134;5.596;2022-08-01T00:01:35;22.02;;;15.40;;
19205;SDS011;59358;52.134;5.596;2022-08-01T00:04:02;26.35;;;17.23;;
19205;SDS011;59358;52.134;5.596;2022-08-01T00:06:29;26.50;;;16.75;;
19205;SDS011;59358;52.134;5.596;2022-08-01T00:08:56;26.50;;;16.17;;
19205;SDS011;59358;52.134;5.596;2022-08-01T00:11:23;25.30;;;15.65;;
19205;SDS011;59358;52.134;5.596;2022-08-01T00:13:49;21.98;;;15.65;;
19205;SDS011;59358;52.134;5.596;2022-08-01T00:16:16;23.17;;;16.13;;
19205;SDS011;59358;52.134;5.596;2022-08-01T00:18:45;20.25;;;15.13;;
19205;SDS011;59358;52.134;5.596;2022-08-01T00:21:11;23.98;;;16.25;;
19205;SDS011;59358;52.134;5.596;2022-08-01T00:23:39;21.80;;;15.30;;
19205;SDS011;59358;52.134;5.596;2022-08-01T00:26:05;23.08;;;16.08;;
19205;SDS011;59358;52.134;5.596;2022-08-01T00:28:32;21.17;;;15.05;;
19205;SDS011;59358;52.134;5.596;2022-08-01T00:30:59;19.67;;;13.98;;
19205;SDS011;59358;52.134;5.596;2022-08-01T00:33:26;18.58;;;13.43;;
19205;SDS011;59358;52.134;5.596;2022-08-01T00:35:54;21.42;;;14.25;;
19205;SDS011;59358;52.134;5.596;2022-08-01T00:38:21;20.10;;;11.82;;
19205;SDS011;59358;52.134;5.596;2022-08-01T00:40:48;17.40;;;12.20;;
19205;SDS011;59358;52.134;5.596;2022-08-01T00:43:15;17.27;;;11.95;;
19205;SDS011;59358;52.134;5.596;2022-08-01T00:45:42;16.63;;;12.13;;
19205;SDS011;59358;52.134;5.596;2022-08-01T00:48:09;19.45;;;11.40;;
19205;SDS011;59358;52.134;5.596;2022-08-01T00:50:36;16.48;;;11.82;;
19205;SDS011;59358;52.134;5.596;2022-08-01T00:53:05;15.13;;;11.18;;
19205;SDS011;59358;52.134;5.596;2022-08-01T00:55:33;20.17;;;11.27;;
19205;SDS011;59358;52.134;5.596;2022-08-01T00:58:00;16.50;;;10.82;;
19205;SDS011;59358;52.134;5.596;2022-08-01T01:00:27;16.35;;;10.60;;
19205;SDS011;59358;52.134;5.596;2022-08-01T01:02:54;18.40;;;10.75;;
19205;SDS011;59358;52.134;5.596;2022-08-01T01:05:21;16.25;;;11.13;;
19205;SDS011;59358;52.134;5.596;2022-08-01T01:07:49;16.58;;;10.55;;
19205;SDS011;59358;52.134;5.596;2022-08-01T01:10:22;16.00;;;9.85;;
19205;SDS011;59358;52.134;5.596;2022-08-01T01:12:55;15.45;;;10.05;;
19205;SDS011;59358;52.134;5.596;2022-08-01T01:15:29;14.70;;;10.52;;
19205;SDS011;59358;52.134;5.596;2022-08-01T01:18:02;14.60;;;9.98;;
19205;SDS011;59358;52.134;5.596;2022-08-01T01:20:31;16.80;;;10.63;;
19205;SDS011;59358;52.134;5.596;2022-08-01T01:23:09;20.08;;;11.40;;
19205;SDS011;59358;52.134;5.596;2022-08-01T01:25:54;15.25;;;10.88;;
19205;SDS011;59358;52.134;5.596;2022-08-01T01:28:40;15.88;;;11.23;;
19205;SDS011;59358;52.134;5.596;2022-08-01T01:31:17;18.27;;;11.73;;
19205;SDS011;59358;52.134;5.596;2022-08-01T01:33:47;20.00;;;11.40;;
19205;SDS011;59358;52.134;5.596;2022-08-01T01:36:15;23.98;;;12.35;;
19205;SDS011;59358;52.134;5.596;2022-08-01T01:38:44;20.02;;;12.75;;
19205;SDS011;59358;52.134;5.596;2022-08-01T01:41:13;20.17;;;12.15;;
19205;SDS011;59358;52.134;5.596;2022-08-01T01:43:42;19.20;;;12.20;;
19205;SDS011;59358;52.134;5.596;2022-08-01T01:46:11;21.63;;;12.75;;
19205;SDS011;59358;52.134;5.596;2022-08-01T01:48:41;23.45;;;13.52;;
19205;SDS011;59358;52.134;5.596;2022-08-01T01:51:11;22.17;;;13.45;;
19205;SDS011;59358;52.134;5.596;2022-08-01T01:53:39;22.33;;;13.55;;
19205;SDS011;59358;52.134;5.596;2022-08-01T01:56:07;20.75;;;12.25;;
19205;SDS011;59358;52.134;5.596;2022-08-01T01:58:36;22.05;;;11.70;;
19205;SDS011;59358;52.134;5.596;2022-08-01T02:01:05;17.73;;;10.95;;
19205;SDS011;59358;52.134;5.596;2022-08-01T02:03:34;19.77;;;10.73;;
19205;SDS011;59358;52.134;5.596;2022-08-01T02:06:02;19.77;;;11.55;;
19205;SDS011;59358;52.134;5.596;2022-08-01T02:08:30;21.73;;;11.80;;
19205;SDS011;59358;52.134;5.596;2022-08-01T02:10:58;19.33;;;11.68;;
19205;SDS011;59358;52.134;5.596;2022-08-01T02:13:46;19.95;;;11.75;;
19205;SDS011;59358;52.134;5.596;2022-08-01T02:16:18;20.90;;;11.75;;
19205;SDS011;59358;52.134;5.596;2022-08-01T02:18:48;20.08;;;12.00;;
19205;SDS011;59358;52.134;5.596;2022-08-01T02:21:16;17.27;;;11.02;;
19205;SDS011;59358;52.134;5.596;2022-08-01T02:23:46;23.38;;;12.98;;
19205;SDS011;59358;52.134;5.596;2022-08-01T02:26:15;16.15;;;10.45;;
19205;SDS011;59358;52.134;5.596;2022-08-01T02:28:45;17.27;;;10.23;;
19205;SDS011;59358;52.134;5.596;2022-08-01T02:31:16;21.27;;;11.77;;
19205;SDS011;59358;52.134;5.596;2022-08-01T02:33:50;16.25;;;9.77;;
19205;SDS011;59358;52.134;5.596;2022-08-01T02:36:20;13.57;;;9.18;;
19205;SDS011;59358;52.134;5.596;2022-08-01T02:38:51;16.83;;;10.00;;
19205;SDS011;59358;52.134;5.596;2022-08-01T02:41:20;14.65;;;9.75;;
19205;SDS011;59358;52.134;5.596;2022-08-01T02:43:50;12.93;;;9.40;;
19205;SDS011;59358;52.134;5.596;2022-08-01T02:46:21;15.45;;;10.02;;
19205;SDS011;59358;52.134;5.596;2022-08-01T02:48:53;17.38;;;10.48;;
19205;SDS011;59358;52.134;5.596;2022-08-01T02:51:21;14.77;;;10.55;;
19205;SDS011;59358;52.134;5.596;2022-08-01T02:53:51;19.65;;;11.85;;
19205;SDS011;59358;52.134;5.596;2022-08-01T02:56:19;16.50;;;9.98;;
19205;SDS011;59358;52.134;5.596;2022-08-01T02:58:48;16.42;;;10.48;;
19205;SDS011;59358;52.134;5.596;2022-08-01T03:01:17;15.55;;;10.48;;
19205;SDS011;59358;52.134;5.596;2022-08-01T03:03:45;15.45;;;9.43;;
19205;SDS011;59358;52.134;5.596;2022-08-01T03:06:13;17.65;;;10.98;;
19205;SDS011;59358;52.134;5.596;2022-08-01T03:08:41;20.10;;;10.65;;
19205;SDS011;59358;52.134;5.596;2022-08-01T03:11:09;17.63;;;11.60;;
19205;SDS011;59358;52.134;5.596;2022-08-01T03:13:38;18.30;;;11.73;;
19205;SDS011;59358;52.134;5.596;2022-08-01T03:16:08;19.75;;;11.90;;
19205;SDS011;59358;52.134;5.596;2022-08-01T03:18:36;21.65;;;13.05;;
19205;SDS011;59358;52.134;5.596;2022-08-01T03:21:04;22.48;;;13.45;;
19205;SDS011;59358;52.134;5.596;2022-08-01T03:23:34;23.73;;;13.13;;
19205;SDS011;59358;52.134;5.596;2022-08-01T03:26:03;22.63;;;13.88;;
19205;SDS011;59358;52.134;5.596;2022-08-01T03:28:31;20.90;;;13.23;;
19205;SDS011;59358;52.134;5.596;2022-08-01T03:30:58;24.00;;;14.05;;
19205;SDS011;59358;52.134;5.596;2022-08-01T03:33:26;20.52;;;12.98;;
19205;SDS011;59358;52.134;5.596;2022-08-01T03:35:54;24.95;;;14.20;;
19205;SDS011;59358;52.134;5.596;2022-08-01T03:38:23;27.00;;;15.70;;
19205;SDS011;59358;52.134;5.596;2022-08-01T03:40:54;21.77;;;14.27;;
19205;SDS011;59358;52.134;5.596;2022-08-01T03:43:26;25.13;;;15.38;;
19205;SDS011;59358;52.134;5.596;2022-08-01T03:45:58;24.10;;;14.75;;
19205;SDS011;59358;52.134;5.596;2022-08-01T03:48:29;22.83;;;15.23;;
19205;SDS011;59358;52.134;5.596;2022-08-01T03:51:01;23.15;;;14.25;;
19205;SDS011;59358;52.134;5.596;2022-08-01T03:53:30;26.70;;;15.93;;
19205;SDS011;59358;52.134;5.596;2022-08-01T03:56:00;28.00;;;16.80;;
19205;SDS011;59358;52.134;5.596;2022-08-01T03:58:29;32.72;;;17.70;;
19205;SDS011;59358;52.134;5.596;2022-08-01T04:00:56;28.17;;;16.50;;
19205;SDS011;59358;52.134;5.596;2022-08-01T04:03:23;31.20;;;17.55;;
19205;SDS011;59358;52.134;5.596;2022-08-01T04:05:51;31.30;;;17.48;;
19205;SDS011;59358;52.134;5.596;2022-08-01T04:08:17;29.90;;;17.52;;
19205;SDS011;59358;52.134;5.596;2022-08-01T04:10:45;31.33;;;18.08;;
19205;SDS011;59358;52.134;5.596;2022-08-01T04:13:13;26.45;;;16.83;;
19205;SDS011;59358;52.134;5.596;2022-08-01T04:15:40;30.23;;;17.70;;
19205;SDS011;59358;52.134;5.596;2022-08-01T04:18:06;31.60;;;18.30;;
19205;SDS011;59358;52.134;5.596;2022-08-01T04:20:33;30.65;;;17.95;;
19205;SDS011;59358;52.134;5.596;2022-08-01T04:23:00;31.80;;;17.10;;
19205;SDS011;59358;52.134;5.596;2022-08-01T04:25:28;27.27;;;16.50;;
19205;SDS011;59358;52.134;5.596;2022-08-01T04:27:59;26.67;;;15.70;;
19205;SDS011;59358;52.134;5.596;2022-08-01T04:30:31;25.35;;;15.60;;
19205;SDS011;59358;52.134;5.596;2022-08-01T04:33:01;27.48;;;15.18;;
19205;SDS011;59358;52.134;5.596;2022-08-01T04:35:31;23.38;;;14.90;;
19205;SDS011;59358;52.134;5.596;2022-08-01T04:37:58;25.70;;;14.68;;
19205;SDS011;59358;52.134;5.596;2022-08-01T04:40:27;24.17;;;15.27;;
19205;SDS011;59358;52.134;5.596;2022-08-01T04:42:55;24.27;;;14.38;;
19205;SDS011;59358;52.134;5.596;2022-08-01T04:45:22;18.95;;;12.98;;
19205;SDS011;59358;52.134;5.596;2022-08-01T04:47:51;18.65;;;11.73;;
19205;SDS011;59358;52.134;5.596;2022-08-01T04:50:18;14.25;;;10.07;;
19205;SDS011;59358;52.134;5.596;2022-08-01T04:52:47;11.05;;;8.82;;
19205;SDS011;59358;52.134;5.596;2022-08-01T04:55:14;11.68;;;7.13;;
19205;SDS011;59358;52.134;5.596;2022-08-01T04:57:42;10.25;;;7.00;;
19205;SDS011;59358;52.134;5.596;2022-08-01T05:00:11;9.88;;;6.30;;
19205;SDS011;59358;52.134;5.596;2022-08-01T05:02:38;10.07;;;6.13;;
19205;SDS011;59358;52.134;5.596;2022-08-01T05:05:07;8.50;;;5.15;;
19205;SDS011;59358;52.134;5.596;2022-08-01T05:07:35;5.05;;;4.07;;
19205;SDS011;59358;52.134;5.596;2022-08-01T05:10:02;7.88;;;3.60;;
19205;SDS011;59358;52.134;5.596;2022-08-01T05:12:30;5.28;;;3.53;;
19205;SDS011;59358;52.134;5.596;2022-08-01T05:14:57;5.43;;;3.80;;
19205;SDS011;59358;52.134;5.596;2022-08-01T05:17:24;3.97;;;3.58;;
19205;SDS011;59358;52.134;5.596;2022-08-01T05:19:51;5.40;;;2.65;;
19205;SDS011;59358;52.134;5.596;2022-08-01T05:22:20;6.25;;;3.22;;
19205;SDS011;59358;52.134;5.596;2022-08-01T05:24:47;2.80;;;2.60;;
19205;SDS011;59358;52.134;5.596;2022-08-01T05:27:14;2.83;;;2.45;;
19205;SDS011;59358;52.134;5.596;2022-08-01T05:29:40;3.28;;;2.95;;
19205;SDS011;59358;52.134;5.596;2022-08-01T05:32:07;2.60;;;2.40;;
19205;SDS011;59358;52.134;5.596;2022-08-01T05:34:34;2.88;;;2.47;;
19205;SDS011;59358;52.134;5.596;2022-08-01T05:37:01;4.50;;;2.78;;
19205;SDS011;59358;52.134;5.596;2022-08-01T05:39:30;3.55;;;2.42;;
19205;SDS011;59358;52.134;5.596;2022-08-01T05:41:57;4.20;;;3.00;;
19205;SDS011;59358;52.134;5.596;2022-08-01T05:44:26;3.13;;;2.63;;
19205;SDS011;59358;52.134;5.596;2022-08-01T05:46:56;3.30;;;3.00;;
19205;SDS011;59358;52.134;5.596;2022-08-01T05:49:23;3.75;;;3.00;;
19205;SDS011;59358;52.134;5.596;2022-08-01T05:51:50;4.95;;;3.03;;
19205;SDS011;59358;52.134;5.596;2022-08-01T05:54:17;4.30;;;3.13;;
19205;SDS011;59358;52.134;5.596;2022-08-01T05:56:45;4.15;;;3.35;;
19205;SDS011;59358;52.134;5.596;2022-08-01T05:59:12;4.22;;;3.40;;
19205;SDS011;59358;52.134;5.596;2022-08-01T06:01:39;4.05;;;3.65;;
19205;SDS011;59358;52.134;5.596;2022-08-01T06:04:06;4.95;;;3.38;;
19205;SDS011;59358;52.134;5.596;2022-08-01T06:06:32;6.60;;;4.07;;
19205;SDS011;59358;52.134;5.596;2022-08-01T06:08:59;6.18;;;3.50;;
19205;SDS011;59358;52.134;5.596;2022-08-01T06:11:26;6.38;;;4.00;;
19205;SDS011;59358;52.134;5.596;2022-08-01T06:13:54;4.47;;;3.50;;
19205;SDS011;59358;52.134;5.596;2022-08-01T06:16:21;4.40;;;3.80;;
19205;SDS011;59358;52.134;5.596;2022-08-01T06:18:48;5.05;;;4.10;;
19205;SDS011;59358;52.134;5.596;2022-08-01T06:21:15;5.93;;;3.67;;
19205;SDS011;59358;52.134;5.596;2022-08-01T06:23:42;5.65;;;4.03;;
19205;SDS011;59358;52.134;5.596;2022-08-01T06:26:08;4.75;;;3.67;;
19205;SDS011;59358;52.134;5.596;2022-08-01T06:28:35;4.47;;;4.07;;
19205;SDS011;59358;52.134;5.596;2022-08-01T06:31:04;5.68;;;3.90;;
19205;SDS011;59358;52.134;5.596;2022-08-01T06:33:31;5.63;;;3.85;;
19205;SDS011;59358;52.134;5.596;2022-08-01T06:35:58;5.20;;;4.00;;
19205;SDS011;59358;52.134;5.596;2022-08-01T06:38:25;7.07;;;4.45;;
19205;SDS011;59358;52.134;5.596;2022-08-01T06:40:52;5.10;;;4.57;;
19205;SDS011;59358;52.134;5.596;2022-08-01T06:43:19;9.68;;;4.65;;
19205;SDS011;59358;52.134;5.596;2022-08-01T06:45:46;6.07;;;4.82;;
19205;SDS011;59358;52.134;5.596;2022-08-01T06:48:14;7.13;;;4.10;;
19205;SDS011;59358;52.134;5.596;2022-08-01T06:50:41;8.38;;;4.50;;
19205;SDS011;59358;52.134;5.596;2022-08-01T06:53:08;6.43;;;4.70;;
19205;SDS011;59358;52.134;5.596;2022-08-01T06:55:34;4.88;;;4.28;;
19205;SDS011;59358;52.134;5.596;2022-08-01T06:58:01;5.55;;;4.22;;
19205;SDS011;59358;52.134;5.596;2022-08-01T07:00:28;5.22;;;4.00;;
19205;SDS011;59358;52.134;5.596;2022-08-01T07:02:55;6.50;;;4.97;;
19205;SDS011;59358;52.134;5.596;2022-08-01T07:05:24;6.72;;;4.10;;
19205;SDS011;59358;52.134;5.596;2022-08-01T07:07:51;5.63;;;3.92;;
19205;SDS011;59358;52.134;5.596;2022-08-01T07:10:18;7.32;;;4.57;;
19205;SDS011;59358;52.134;5.596;2022-08-01T07:12:45;7.47;;;4.35;;
19205;SDS011;59358;52.134;5.596;2022-08-01T07:15:12;7.93;;;4.97;;
19205;SDS011;59358;52.134;5.596;2022-08-01T07:17:39;10.95;;;4.78;;
19205;SDS011;59358;52.134;5.596;2022-08-01T07:20:08;4.55;;;4.07;;
19205;SDS011;59358;52.134;5.596;2022-08-01T07:22:38;8.13;;;3.78;;
19205;SDS011;59358;52.134;5.596;2022-08-01T07:25:05;7.57;;;4.25;;
19205;SDS011;59358;52.134;5.596;2022-08-01T07:27:33;5.10;;;3.78;;
19205;SDS011;59358;52.134;5.596;2022-08-01T07:30:00;8.43;;;4.05;;
19205;SDS011;59358;52.134;5.596;2022-08-01T07:32:27;10.65;;;4.85;;
19205;SDS011;59358;52.134;5.596;2022-08-01T07:34:54;6.00;;;3.35;;
19205;SDS011;59358;52.134;5.596;2022-08-01T07:37:22;5.78;;;4.55;;
19205;SDS011;59358;52.134;5.596;2022-08-01T07:39:51;9.20;;;4.38;;
19205;SDS011;59358;52.134;5.596;2022-08-01T07:42:17;7.28;;;3.90;;
19205;SDS011;59358;52.134;5.596;2022-08-01T07:44:44;6.32;;;3.92;;
19205;SDS011;59358;52.134;5.596;2022-08-01T07:47:11;8.65;;;4.07;;
19205;SDS011;59358;52.134;5.596;2022-08-01T07:49:38;5.97;;;4.47;;
19205;SDS011;59358;52.134;5.596;2022-08-01T07:52:05;6.65;;;4.88;;
19205;SDS011;59358;52.134;5.596;2022-08-01T07:54:32;8.77;;;5.05;;
19205;SDS011;59358;52.134;5.596;2022-08-01T07:57:00;9.73;;;4.82;;
19205;SDS011;59358;52.134;5.596;2022-08-01T07:59:27;12.68;;;5.10;;
19205;SDS011;59358;52.134;5.596;2022-08-01T08:01:53;12.35;;;4.70;;
19205;SDS011;59358;52.134;5.596;2022-08-01T08:04:20;9.82;;;5.35;;
19205;SDS011;59358;52.134;5.596;2022-08-01T08:06:47;9.50;;;5.03;;
19205;SDS011;59358;52.134;5.596;2022-08-01T08:09:14;12.98;;;4.88;;
19205;SDS011;59358;52.134;5.596;2022-08-01T08:11:42;7.70;;;4.35;;
19205;SDS011;59358;52.134;5.596;2022-08-01T08:14:10;8.90;;;4.53;;
19205;SDS011;59358;52.134;5.596;2022-08-01T08:16:37;13.38;;;4.50;;
19205;SDS011;59358;52.134;5.596;2022-08-01T08:19:04;11.77;;;5.53;;
19205;SDS011;59358;52.134;5.596;2022-08-01T08:21:31;15.23;;;4.90;;
19205;SDS011;59358;52.134;5.596;2022-08-01T08:23:58;16.38;;;4.75;;
19205;SDS011;59358;52.134;5.596;2022-08-01T08:26:42;14.50;;;5.05;;
19205;SDS011;59358;52.134;5.596;2022-08-01T08:29:10;13.27;;;4.32;;
19205;SDS011;59358;52.134;5.596;2022-08-01T08:31:37;17.98;;;5.10;;
19205;SDS011;59358;52.134;5.596;2022-08-01T08:34:04;20.63;;;5.63;;
19205;SDS011;59358;52.134;5.596;2022-08-01T08:36:31;18.23;;;4.82;;
19205;SDS011;59358;52.134;5.596;2022-08-01T08:38:58;11.85;;;4.32;;
19205;SDS011;59358;52.134;5.596;2022-08-01T08:41:25;10.75;;;3.92;;
19205;SDS011;59358;52.134;5.596;2022-08-01T08:43:52;14.23;;;3.95;;
19205;SDS011;59358;52.134;5.596;2022-08-01T08:46:20;16.10;;;3.85;;
19205;SDS011;59358;52.134;5.596;2022-08-01T08:48:49;18.73;;;4.50;;
19205;SDS011;59358;52.134;5.596;2022-08-01T08:51:17;13.95;;;4.40;;
19205;SDS011;59358;52.134;5.596;2022-08-01T08:53:45;16.80;;;5.15;;
19205;SDS011;59358;52.134;5.596;2022-08-01T08:56:13;16.40;;;4.53;;
19205;SDS011;59358;52.134;5.596;2022-08-01T08:58:41;10.23;;;4.00;;
19205;SDS011;59358;52.134;5.596;2022-08-01T09:01:11;13.23;;;4.00;;
19205;SDS011;59358;52.134;5.596;2022-08-01T09:03:40;10.52;;;3.88;;
19205;SDS011;59358;52.134;5.596;2022-08-01T09:06:06;14.15;;;3.78;;
19205;SDS011;59358;52.134;5.596;2022-08-01T09:08:33;13.15;;;4.45;;
19205;SDS011;59358;52.134;5.596;2022-08-01T09:11:00;10.55;;;4.03;;
19205;SDS011;59358;52.134;5.596;2022-08-01T09:13:27;12.98;;;4.10;;
19205;SDS011;59358;52.134;5.596;2022-08-01T09:15:55;14.23;;;4.25;;
19205;SDS011;59358;52.134;5.596;2022-08-01T09:18:27;13.70;;;3.70;;
19205;SDS011;59358;52.134;5.596;2022-08-01T09:21:11;12.73;;;3.80;;
19205;SDS011;59358;52.134;5.596;2022-08-01T09:23:41;12.93;;;4.05;;
19205;SDS011;59358;52.134;5.596;2022-08-01T09:26:11;8.25;;;2.92;;
19205;SDS011;59358;52.134;5.596;2022-08-01T09:28:40;7.40;;;2.65;;
19205;SDS011;59358;52.134;5.596;2022-08-01T09:31:08;10.05;;;2.85;;
19205;SDS011;59358;52.134;5.596;2022-08-01T09:33:47;7.82;;;3.15;;
19205;SDS011;59358;52.134;5.596;2022-08-01T09:36:16;10.25;;;2.92;;
19205;SDS011;59358;52.134;5.596;2022-08-01T09:38:44;9.00;;;2.90;;
19205;SDS011;59358;52.134;5.596;2022-08-01T09:41:11;11.13;;;2.88;;
19205;SDS011;59358;52.134;5.596;2022-08-01T09:43:38;8.15;;;2.80;;
19205;SDS011;59358;52.134;5.596;2022-08-01T09:46:05;4.47;;;2.33;;
19205;SDS011;59358;52.134;5.596;2022-08-01T09:48:36;7.28;;;3.20;;
19205;SDS011;59358;52.134;5.596;2022-08-01T09:51:04;6.68;;;2.42;;
19205;SDS011;59358;52.134;5.596;2022-08-01T09:53:43;9.05;;;3.05;;
19205;SDS011;59358;52.134;5.596;2022-08-01T09:56:12;6.38;;;2.50;;
19205;SDS011;59358;52.134;5.596;2022-08-01T09:58:48;5.55;;;2.28;;
19205;SDS011;59358;52.134;5.596;2022-08-01T10:01:16;10.25;;;3.35;;
19205;SDS011;59358;52.134;5.596;2022-08-01T10:03:45;10.07;;;3.03;;
19205;SDS011;59358;52.134;5.596;2022-08-01T10:06:19;11.00;;;2.85;;
19205;SDS011;59358;52.134;5.596;2022-08-01T10:08:48;6.63;;;2.42;;
19205;SDS011;59358;52.134;5.596;2022-08-01T10:11:15;9.68;;;2.45;;
19205;SDS011;59358;52.134;5.596;2022-08-01T10:13:42;8.75;;;2.55;;
19205;SDS011;59358;52.134;5.596;2022-08-01T10:16:09;8.95;;;2.63;;
19205;SDS011;59358;52.134;5.596;2022-08-01T10:18:38;10.52;;;3.10;;
19205;SDS011;59358;52.134;5.596;2022-08-01T10:21:08;7.70;;;2.35;;
19205;SDS011;59358;52.134;5.596;2022-08-01T10:23:37;8.23;;;2.30;;
19205;SDS011;59358;52.134;5.596;2022-08-01T10:26:05;6.75;;;2.50;;
19205;SDS011;59358;52.134;5.596;2022-08-01T10:28:34;14.25;;;2.75;;
19205;SDS011;59358;52.134;5.596;2022-08-01T10:31:02;7.57;;;2.88;;
19205;SDS011;59358;52.134;5.596;2022-08-01T10:33:29;7.80;;;2.70;;
19205;SDS011;59358;52.134;5.596;2022-08-01T10:35:56;6.15;;;2.70;;
19205;SDS011;59358;52.134;5.596;2022-08-01T10:38:23;9.20;;;2.65;;
19205;SDS011;59358;52.134;5.596;2022-08-01T10:40:50;7.85;;;2.40;;
19205;SDS011;59358;52.134;5.596;2022-08-01T10:43:19;5.55;;;1.80;;
19205;SDS011;59358;52.134;5.596;2022-08-01T10:45:46;6.88;;;1.90;;
19205;SDS011;59358;52.134;5.596;2022-08-01T10:48:14;3.90;;;1.70;;
19205;SDS011;59358;52.134;5.596;2022-08-01T10:50:47;5.78;;;1.65;;
19205;SDS011;59358;52.134;5.596;2022-08-01T10:53:16;9.13;;;2.72;;
19205;SDS011;59358;52.134;5.596;2022-08-01T10:55:48;7.55;;;2.17;;
19205;SDS011;59358;52.134;5.596;2022-08-01T10:58:25;6.75;;;2.25;;
19205;SDS011;59358;52.134;5.596;2022-08-01T11:03:40;6.03;;;1.95;;
19205;SDS011;59358;52.134;5.596;2022-08-01T11:06:07;7.18;;;2.25;;
19205;SDS011;59358;52.134;5.596;2022-08-01T11:08:43;10.10;;;2.30;;
19205;SDS011;59358;52.134;5.596;2022-08-01T11:11:18;9.52;;;2.00;;
19205;SDS011;59358;52.134;5.596;2022-08-01T11:14:02;8.20;;;2.30;;
19205;SDS011;59358;52.134;5.596;2022-08-01T11:16:35;7.85;;;2.20;;
19205;SDS011;59358;52.134;5.596;2022-08-01T11:19:02;5.28;;;2.15;;
19205;SDS011;59358;52.134;5.596;2022-08-01T11:27:26;7.47;;;2.28;;
19205;SDS011;59358;52.134;5.596;2022-08-01T11:32:52;4.00;;;2.00;;
19205;SDS011;59358;52.134;5.596;2022-08-01T11:35:20;10.32;;;1.95;;
19205;SDS011;59358;52.134;5.596;2022-08-01T11:37:50;7.53;;;2.20;;
19205;SDS011;59358;52.134;5.596;2022-08-01T11:40:18;9.68;;;2.63;;
19205;SDS011;59358;52.134;5.596;2022-08-01T11:42:47;7.95;;;2.30;;
19205;SDS011;59358;52.134;5.596;2022-08-01T11:45:15;16.52;;;3.42;;
19205;SDS011;59358;52.134;5.596;2022-08-01T11:47:47;7.97;;;2.63;;
19205;SDS011;59358;52.134;5.596;2022-08-01T11:50:31;6.05;;;2.40;;
19205;SDS011;59358;52.134;5.596;2022-08-01T11:53:03;6.82;;;2.25;;
19205;SDS011;59358;52.134;5.596;2022-08-01T11:55:31;8.63;;;2.60;;
19205;SDS011;59358;52.134;5.596;2022-08-01T11:58:00;5.38;;;2.03;;
19205;SDS011;59358;52.134;5.596;2022-08-01T12:00:28;9.85;;;2.53;;
19205;SDS011;59358;52.134;5.596;2022-08-01T12:02:57;5.65;;;2.13;;
19205;SDS011;59358;52.134;5.596;2022-08-01T12:05:25;8.88;;;2.10;;
19205;SDS011;59358;52.134;5.596;2022-08-01T12:07:53;8.18;;;2.60;;
19205;SDS011;59358;52.134;5.596;2022-08-01T12:10:22;7.63;;;2.83;;
19205;SDS011;59358;52.134;5.596;2022-08-01T12:12:51;5.90;;;2.00;;
19205;SDS011;59358;52.134;5.596;2022-08-01T12:15:19;8.23;;;2.30;;
19205;SDS011;59358;52.134;5.596;2022-08-01T12:17:48;11.27;;;1.98;;
19205;SDS011;59358;52.134;5.596;2022-08-01T12:20:20;7.57;;;2.20;;
19205;SDS011;59358;52.134;5.596;2022-08-01T12:22:47;8.45;;;2.20;;
19205;SDS011;59358;52.134;5.596;2022-08-01T12:25:19;7.32;;;2.10;;
19205;SDS011;59358;52.134;5.596;2022-08-01T12:27:46;4.85;;;1.60;;
19205;SDS011;59358;52.134;5.596;2022-08-01T12:30:14;7.28;;;1.85;;
19205;SDS011;59358;52.134;5.596;2022-08-01T12:32:42;4.20;;;1.75;;
19205;SDS011;59358;52.134;5.596;2022-08-01T12:35:12;7.05;;;1.77;;
19205;SDS011;59358;52.134;5.596;2022-08-01T12:37:42;6.32;;;1.92;;
19205;SDS011;59358;52.134;5.596;2022-08-01T12:40:10;6.93;;;1.88;;
19205;SDS011;59358;52.134;5.596;2022-08-01T12:42:39;7.43;;;1.80;;
19205;SDS011;59358;52.134;5.596;2022-08-01T12:45:07;3.97;;;1.30;;
19205;SDS011;59358;52.134;5.596;2022-08-01T12:47:36;5.75;;;1.73;;
19205;SDS011;59358;52.134;5.596;2022-08-01T12:50:05;2.80;;;1.30;;
19205;SDS011;59358;52.134;5.596;2022-08-01T12:52:33;3.00;;;1.13;;
19205;SDS011;59358;52.134;5.596;2022-08-01T12:55:03;3.67;;;1.63;;
19205;SDS011;59358;52.134;5.596;2022-08-01T12:57:35;10.38;;;1.55;;
19205;SDS011;59358;52.134;5.596;2022-08-01T13:00:04;3.50;;;1.40;;
19205;SDS011;59358;52.134;5.596;2022-08-01T13:02:33;4.07;;;1.45;;
19205;SDS011;59358;52.134;5.596;2022-08-01T13:05:00;2.78;;;1.20;;
19205;SDS011;59358;52.134;5.596;2022-08-01T13:07:34;4.90;;;1.45;;
19205;SDS011;59358;52.134;5.596;2022-08-01T13:10:04;3.47;;;1.13;;
19205;SDS011;59358;52.134;5.596;2022-08-01T13:12:31;2.83;;;1.25;;
19205;SDS011;59358;52.134;5.596;2022-08-01T13:14:58;3.15;;;1.20;;
19205;SDS011;59358;52.134;5.596;2022-08-01T13:17:31;3.88;;;1.30;;
19205;SDS011;59358;52.134;5.596;2022-08-01T13:20:00;2.95;;;1.23;;
19205;SDS011;59358;52.134;5.596;2022-08-01T13:22:31;6.35;;;1.67;;
19205;SDS011;59358;52.134;5.596;2022-08-01T13:25:10;6.35;;;1.98;;
19205;SDS011;59358;52.134;5.596;2022-08-01T13:27:37;2.95;;;1.40;;
19205;SDS011;59358;52.134;5.596;2022-08-01T13:30:10;2.42;;;1.30;;
19205;SDS011;59358;52.134;5.596;2022-08-01T13:32:41;3.47;;;1.20;;
19205;SDS011;59358;52.134;5.596;2022-08-01T13:35:09;1.95;;;0.95;;
19205;SDS011;59358;52.134;5.596;2022-08-01T13:37:38;4.20;;;1.27;;
19205;SDS011;59358;52.134;5.596;2022-08-01T13:40:06;3.70;;;1.30;;
19205;SDS011;59358;52.134;5.596;2022-08-01T13:42:38;2.65;;;1.27;;
19205;SDS011;59358;52.134;5.596;2022-08-01T13:45:06;4.03;;;1.40;;
19205;SDS011;59358;52.134;5.596;2022-08-01T13:47:35;2.10;;;1.15;;
19205;SDS011;59358;52.134;5.596;2022-08-01T13:50:03;6.80;;;1.73;;
19205;SDS011;59358;52.134;5.596;2022-08-01T13:52:30;3.92;;;1.60;;
19205;SDS011;59358;52.134;5.596;2022-08-01T13:54:57;4.28;;;1.40;;
19205;SDS011;59358;52.134;5.596;2022-08-01T13:57:24;5.80;;;1.65;;
19205;SDS011;59358;52.134;5.596;2022-08-01T13:59:52;6.78;;;1.63;;
19205;SDS011;59358;52.134;5.596;2022-08-01T14:02:19;1.50;;;1.20;;
19205;SDS011;59358;52.134;5.596;2022-08-01T14:04:46;3.20;;;1.27;;
19205;SDS011;59358;52.134;5.596;2022-08-01T14:07:13;3.28;;;1.25;;
19205;SDS011;59358;52.134;5.596;2022-08-01T14:09:40;2.17;;;1.15;;
19205;SDS011;59358;52.134;5.596;2022-08-01T14:12:07;3.75;;;1.38;;
19205;SDS011;59358;52.134;5.596;2022-08-01T14:14:34;5.57;;;1.40;;
19205;SDS011;59358;52.134;5.596;2022-08-01T14:17:02;10.02;;;1.50;;
19205;SDS011;59358;52.134;5.596;2022-08-01T14:19:29;3.88;;;1.38;;
19205;SDS011;59358;52.134;5.596;2022-08-01T14:21:58;2.80;;;1.42;;
19205;SDS011;59358;52.134;5.596;2022-08-01T14:24:24;4.30;;;1.52;;
19205;SDS011;59358;52.134;5.596;2022-08-01T14:26:52;4.40;;;1.50;;
19205;SDS011;59358;52.134;5.596;2022-08-01T14:29:18;3.75;;;1.27;;
19205;SDS011;59358;52.134;5.596;2022-08-01T14:31:45;3.58;;;1.10;;
19205;SDS011;59358;52.134;5.596;2022-08-01T14:34:13;3.03;;;1.00;;
19205;SDS011;59358;52.134;5.596;2022-08-01T14:36:40;2.22;;;0.95;;
19205;SDS011;59358;52.134;5.596;2022-08-01T14:39:10;3.92;;;1.10;;
19205;SDS011;59358;52.134;5.596;2022-08-01T14:41:37;3.70;;;1.27;;
19205;SDS011;59358;52.134;5.596;2022-08-01T14:44:04;2.72;;;1.02;;
19205;SDS011;59358;52.134;5.596;2022-08-01T14:46:31;3.35;;;1.10;;
19205;SDS011;59358;52.134;5.596;2022-08-01T14:48:57;1.38;;;1.05;;
19205;SDS011;59358;52.134;5.596;2022-08-01T14:51:25;2.03;;;1.10;;
19205;SDS011;59358;52.134;5.596;2022-08-01T14:53:52;1.88;;;1.27;;
19205;SDS011;59358;52.134;5.596;2022-08-01T14:56:19;2.38;;;0.77;;
19205;SDS011;59358;52.134;5.596;2022-08-01T14:58:45;2.80;;;1.25;;